sensor_id;sensor_type;location;lat;lon;timestamp;pressure;altitude;pressure_sealevel;temperature;humidity
77027;BME280;65956;52.986;17.490;2023-01-05T00:01:47;99102.28;;;7.70;92.21
77027;BME280;65956;52.986;17.490;2023-01-05T00:04:14;99091.96;;;7.68;92.24
77027;BME280;65956;52.986;17.490;2023-01-05T00:06:42;99083.45;;;7.64;92.14
77027;BME280;65956;52.986;17.490;2023-01-05T00:09:12;99086.42;;;7.61;92.15
77027;BME280;65956;52.986;17.490;2023-01-05T00:11:40;99084.84;;;7.59;92.10
77027;BME280;65956;52.986;17.490;2023-01-05T00:14:31;99084.56;;;7.57;92.00
77027;BME280;65956;52.986;17.490;2023-01-05T00:17:21;99089.02;;;7.57;92.05
77027;BME280;65956;52.986;17.490;2023-01-05T00:20:25;99083.47;;;7.58;92.00
77027;BME280;65956;52.986;17.490;2023-01-05T00:23:11;99097.60;;;7.60;92.00
77027;BME280;65956;52.986;17.490;2023-01-05T00:25:40;99093.16;;;7.62;91.95
77027;BME280;65956;52.986;17.490;2023-01-05T00:28:07;99087.77;;;7.62;91.87
77027;BME280;65956;52.986;17.490;2023-01-05T00:30:45;99081.20;;;7.61;91.96
77027;BME280;65956;52.986;17.490;2023-01-05T00:33:14;99080.25;;;7.61;92.07
77027;BME280;65956;52.986;17.490;2023-01-05T00:35:42;99073.74;;;7.60;92.05
77027;BME280;65956;52.986;17.490;2023-01-05T00:38:10;99067.55;;;7.58;92.16
77027;BME280;65956;52.986;17.490;2023-01-05T00:40:38;99065.25;;;7.58;92.11
77027;BME280;65956;52.986;17.490;2023-01-05T00:43:06;99057.48;;;7.57;92.28
77027;BME280;65956;52.986;17.490;2023-01-05T00:45:33;99057.24;;;7.56;92.19
77027;BME280;65956;52.986;17.490;2023-01-05T00:48:00;99058.58;;;7.55;92.34
77027;BME280;65956;52.986;17.490;2023-01-05T00:50:27;99058.65;;;7.55;92.46
77027;BME280;65956;52.986;17.490;2023-01-05T00:52:55;99055.50;;;7.56;92.51
77027;BME280;65956;52.986;17.490;2023-01-05T00:55:22;99055.10;;;7.57;92.60
77027;BME280;65956;52.986;17.490;2023-01-05T00:57:49;99050.53;;;7.58;92.66
77027;BME280;65956;52.986;17.490;2023-01-05T01:00:18;99044.61;;;7.60;92.72
77027;BME280;65956;52.986;17.490;2023-01-05T01:02:45;99040.73;;;7.60;92.81
77027;BME280;65956;52.986;17.490;2023-01-05T01:05:13;99046.74;;;7.62;92.79
77027;BME280;65956;52.986;17.490;2023-01-05T01:07:40;99047.24;;;7.63;92.87
77027;BME280;65956;52.986;17.490;2023-01-05T01:10:09;99050.73;;;7.64;92.89
77027;BME280;65956;52.986;17.490;2023-01-05T01:12:37;99057.66;;;7.67;93.00
77027;BME280;65956;52.986;17.490;2023-01-05T01:15:05;99062.04;;;7.71;92.99
77027;BME280;65956;52.986;17.490;2023-01-05T01:17:33;99058.17;;;7.73;92.99
77027;BME280;65956;52.986;17.490;2023-01-05T01:20:00;99054.48;;;7.76;93.03
77027;BME280;65956;52.986;17.490;2023-01-05T01:22:27;99051.02;;;7.80;93.06
77027;BME280;65956;52.986;17.490;2023-01-05T01:24:54;99045.09;;;7.83;93.08
77027;BME280;65956;52.986;17.490;2023-01-05T01:27:22;99044.79;;;7.85;93.08
77027;BME280;65956;52.986;17.490;2023-01-05T01:29:49;99042.05;;;7.87;93.08
77027;BME280;65956;52.986;17.490;2023-01-05T01:32:19;99040.85;;;7.88;93.06
77027;BME280;65956;52.986;17.490;2023-01-05T01:34:46;99035.25;;;7.90;93.03
77027;BME280;65956;52.986;17.490;2023-01-05T01:37:14;99028.36;;;7.91;92.98
77027;BME280;65956;52.986;17.490;2023-01-05T01:39:46;99026.85;;;7.93;92.96
77027;BME280;65956;52.986;17.490;2023-01-05T01:42:15;99021.09;;;7.94;92.80
77027;BME280;65956;52.986;17.490;2023-01-05T01:44:48;99013.25;;;7.95;92.78
77027;BME280;65956;52.986;17.490;2023-01-05T01:47:25;99002.64;;;7.95;92.78
77027;BME280;65956;52.986;17.490;2023-01-05T01:49:56;99001.93;;;7.98;92.55
77027;BME280;65956;52.986;17.490;2023-01-05T01:52:26;99005.68;;;8.00;92.37
77027;BME280;65956;52.986;17.490;2023-01-05T01:54:56;99006.56;;;8.03;92.21
77027;BME280;65956;52.986;17.490;2023-01-05T01:57:25;99006.79;;;8.03;92.00
77027;BME280;65956;52.986;17.490;2023-01-05T01:59:55;99002.14;;;8.03;91.85
77027;BME280;65956;52.986;17.490;2023-01-05T02:02:26;99005.46;;;8.04;91.63
77027;BME280;65956;52.986;17.490;2023-01-05T02:04:55;99006.42;;;8.04;91.48
77027;BME280;65956;52.986;17.490;2023-01-05T02:07:23;99007.91;;;8.03;91.36
77027;BME280;65956;52.986;17.490;2023-01-05T02:09:51;99011.38;;;8.00;91.40
77027;BME280;65956;52.986;17.490;2023-01-05T02:12:28;99021.61;;;8.00;91.23
77027;BME280;65956;52.986;17.490;2023-01-05T02:18:30;99025.63;;;7.97;90.88
77027;BME280;65956;52.986;17.490;2023-01-05T02:24:32;99018.01;;;7.95;90.60
77027;BME280;65956;52.986;17.490;2023-01-05T02:30:00;99021.29;;;7.89;90.45
77027;BME280;65956;52.986;17.490;2023-01-05T02:32:33;99012.48;;;7.88;90.40
77027;BME280;65956;52.986;17.490;2023-01-05T02:40:37;99011.96;;;7.80;90.28
77027;BME280;65956;52.986;17.490;2023-01-05T02:43:07;99016.39;;;7.78;90.16
77027;BME280;65956;52.986;17.490;2023-01-05T02:45:35;99022.41;;;7.78;90.16
77027;BME280;65956;52.986;17.490;2023-01-05T02:48:02;99025.34;;;7.78;89.95
77027;BME280;65956;52.986;17.490;2023-01-05T02:50:51;99018.23;;;7.73;89.96
77027;BME280;65956;52.986;17.490;2023-01-05T02:53:24;99018.56;;;7.73;89.92
77027;BME280;65956;52.986;17.490;2023-01-05T02:55:56;99016.48;;;7.69;90.01
77027;BME280;65956;52.986;17.490;2023-01-05T02:58:46;99010.13;;;7.68;90.00
77027;BME280;65956;52.986;17.490;2023-01-05T03:01:25;99012.88;;;7.66;89.98
77027;BME280;65956;52.986;17.490;2023-01-05T03:03:58;99010.83;;;7.67;89.94
77027;BME280;65956;52.986;17.490;2023-01-05T03:06:32;99005.74;;;7.65;90.02
77027;BME280;65956;52.986;17.490;2023-01-05T03:09:02;99014.63;;;7.67;90.03
77027;BME280;65956;52.986;17.490;2023-01-05T03:14:47;99017.33;;;7.67;89.96
77027;BME280;65956;52.986;17.490;2023-01-05T03:17:42;99014.70;;;7.67;89.99
77027;BME280;65956;52.986;17.490;2023-01-05T03:20:10;99007.73;;;7.65;90.00
77027;BME280;65956;52.986;17.490;2023-01-05T03:22:40;99011.85;;;7.64;90.04
77027;BME280;65956;52.986;17.490;2023-01-05T03:25:27;99000.34;;;7.62;90.09
77027;BME280;65956;52.986;17.490;2023-01-05T03:28:24;99008.79;;;7.59;90.10
77027;BME280;65956;52.986;17.490;2023-01-05T03:31:33;99009.18;;;7.57;90.12
77027;BME280;65956;52.986;17.490;2023-01-05T03:37:36;99007.35;;;7.56;90.25
77027;BME280;65956;52.986;17.490;2023-01-05T03:40:12;99009.54;;;7.54;90.25
77027;BME280;65956;52.986;17.490;2023-01-05T03:42:42;99005.88;;;7.53;90.32
77027;BME280;65956;52.986;17.490;2023-01-05T03:45:10;99003.42;;;7.52;90.40
77027;BME280;65956;52.986;17.490;2023-01-05T03:47:39;99007.88;;;7.52;90.50
77027;BME280;65956;52.986;17.490;2023-01-05T03:50:07;99001.75;;;7.50;90.53
77027;BME280;65956;52.986;17.490;2023-01-05T03:52:34;99002.45;;;7.50;90.65
77027;BME280;65956;52.986;17.490;2023-01-05T03:55:01;98999.83;;;7.49;90.75
77027;BME280;65956;52.986;17.490;2023-01-05T03:57:28;98997.70;;;7.49;90.84
77027;BME280;65956;52.986;17.490;2023-01-05T03:59:56;99000.15;;;7.48;90.87
77027;BME280;65956;52.986;17.490;2023-01-05T04:02:23;99011.30;;;7.46;90.83
77027;BME280;65956;52.986;17.490;2023-01-05T04:04:52;99003.29;;;7.45;90.93
77027;BME280;65956;52.986;17.490;2023-01-05T04:07:21;98997.34;;;7.42;91.03
77027;BME280;65956;52.986;17.490;2023-01-05T04:09:48;98991.85;;;7.40;91.07
77027;BME280;65956;52.986;17.490;2023-01-05T04:12:17;98996.73;;;7.38;91.10
77027;BME280;65956;52.986;17.490;2023-01-05T04:14:45;98988.75;;;7.38;91.06
77027;BME280;65956;52.986;17.490;2023-01-05T04:17:14;98998.66;;;7.39;91.11
77027;BME280;65956;52.986;17.490;2023-01-05T04:19:42;98998.40;;;7.38;91.03
77027;BME280;65956;52.986;17.490;2023-01-05T04:22:12;98996.95;;;7.37;91.09
77027;BME280;65956;52.986;17.490;2023-01-05T04:24:39;99000.05;;;7.36;91.06
77027;BME280;65956;52.986;17.490;2023-01-05T04:27:06;99002.04;;;7.37;91.10
77027;BME280;65956;52.986;17.490;2023-01-05T04:29:34;98998.46;;;7.37;91.11
77027;BME280;65956;52.986;17.490;2023-01-05T04:32:04;99001.66;;;7.39;91.07
77027;BME280;65956;52.986;17.490;2023-01-05T04:34:33;99001.82;;;7.40;91.16
77027;BME280;65956;52.986;17.490;2023-01-05T04:37:00;99005.86;;;7.41;91.17
77027;BME280;65956;52.986;17.490;2023-01-05T04:39:29;99004.85;;;7.42;91.16
77027;BME280;65956;52.986;17.490;2023-01-05T04:41:57;99007.87;;;7.43;91.19
77027;BME280;65956;52.986;17.490;2023-01-05T04:44:25;99005.90;;;7.43;91.29
77027;BME280;65956;52.986;17.490;2023-01-05T04:46:54;99004.15;;;7.44;91.20
77027;BME280;65956;52.986;17.490;2023-01-05T04:49:22;99004.48;;;7.43;91.32
77027;BME280;65956;52.986;17.490;2023-01-05T04:51:50;98996.38;;;7.42;91.41
77027;BME280;65956;52.986;17.490;2023-01-05T04:54:19;99001.29;;;7.42;91.47
77027;BME280;65956;52.986;17.490;2023-01-05T04:56:46;99005.89;;;7.43;91.44
77027;BME280;65956;52.986;17.490;2023-01-05T04:59:14;99005.75;;;7.45;91.41
77027;BME280;65956;52.986;17.490;2023-01-05T05:01:44;99004.80;;;7.46;91.37
77027;BME280;65956;52.986;17.490;2023-01-05T05:04:12;99002.35;;;7.47;91.31
77027;BME280;65956;52.986;17.490;2023-01-05T05:06:39;99003.88;;;7.47;91.23
77027;BME280;65956;52.986;17.490;2023-01-05T05:09:06;99007.07;;;7.51;91.15
77027;BME280;65956;52.986;17.490;2023-01-05T05:11:35;99007.72;;;7.53;90.95
77027;BME280;65956;52.986;17.490;2023-01-05T05:14:02;99010.42;;;7.55;90.62
77027;BME280;65956;52.986;17.490;2023-01-05T05:16:29;99006.39;;;7.56;90.23
77027;BME280;65956;52.986;17.490;2023-01-05T05:18:58;99003.23;;;7.57;90.03
77027;BME280;65956;52.986;17.490;2023-01-05T05:21:26;99009.26;;;7.59;89.72
77027;BME280;65956;52.986;17.490;2023-01-05T05:23:54;98999.45;;;7.59;89.58
77027;BME280;65956;52.986;17.490;2023-01-05T05:26:21;98998.04;;;7.61;89.47
77027;BME280;65956;52.986;17.490;2023-01-05T05:28:48;99000.10;;;7.63;89.53
77027;BME280;65956;52.986;17.490;2023-01-05T05:31:16;99004.07;;;7.63;89.41
77027;BME280;65956;52.986;17.490;2023-01-05T05:33:43;99006.63;;;7.65;89.48
77027;BME280;65956;52.986;17.490;2023-01-05T05:36:10;99009.95;;;7.65;89.58
77027;BME280;65956;52.986;17.490;2023-01-05T05:38:37;99013.04;;;7.65;89.40
77027;BME280;65956;52.986;17.490;2023-01-05T05:41:04;99010.41;;;7.65;89.02
77027;BME280;65956;52.986;17.490;2023-01-05T05:43:31;99031.81;;;7.65;88.65
77027;BME280;65956;52.986;17.490;2023-01-05T05:45:58;99022.94;;;7.64;88.41
77027;BME280;65956;52.986;17.490;2023-01-05T05:48:26;99020.40;;;7.64;88.08
77027;BME280;65956;52.986;17.490;2023-01-05T05:50:53;99030.21;;;7.63;87.85
77027;BME280;65956;52.986;17.490;2023-01-05T05:53:20;99026.02;;;7.63;87.55
77027;BME280;65956;52.986;17.490;2023-01-05T05:55:49;99029.48;;;7.61;87.34
77027;BME280;65956;52.986;17.490;2023-01-05T05:58:17;99028.53;;;7.61;86.81
77027;BME280;65956;52.986;17.490;2023-01-05T06:00:45;99038.00;;;7.56;86.54
77027;BME280;65956;52.986;17.490;2023-01-05T06:03:13;99044.09;;;7.55;85.90
77027;BME280;65956;52.986;17.490;2023-01-05T06:05:40;99049.29;;;7.53;85.97
77027;BME280;65956;52.986;17.490;2023-01-05T06:08:07;99053.05;;;7.49;86.19
77027;BME280;65956;52.986;17.490;2023-01-05T06:10:35;99051.86;;;7.47;86.53
77027;BME280;65956;52.986;17.490;2023-01-05T06:13:03;99056.23;;;7.48;87.00
77027;BME280;65956;52.986;17.490;2023-01-05T06:15:31;99063.82;;;7.49;87.29
77027;BME280;65956;52.986;17.490;2023-01-05T06:17:58;99067.82;;;7.45;87.58
77027;BME280;65956;52.986;17.490;2023-01-05T06:20:25;99075.41;;;7.43;87.79
77027;BME280;65956;52.986;17.490;2023-01-05T06:22:52;99079.54;;;7.43;87.82
77027;BME280;65956;52.986;17.490;2023-01-05T06:25:20;99087.52;;;7.42;87.66
77027;BME280;65956;52.986;17.490;2023-01-05T06:27:47;99086.55;;;7.41;87.69
77027;BME280;65956;52.986;17.490;2023-01-05T06:30:14;99086.39;;;7.39;87.84
77027;BME280;65956;52.986;17.490;2023-01-05T06:32:41;99092.48;;;7.38;87.89
77027;BME280;65956;52.986;17.490;2023-01-05T06:35:08;99095.21;;;7.37;87.95
77027;BME280;65956;52.986;17.490;2023-01-05T06:37:36;99097.02;;;7.36;87.54
77027;BME280;65956;52.986;17.490;2023-01-05T06:40:04;99100.92;;;7.36;86.78
77027;BME280;65956;52.986;17.490;2023-01-05T06:42:31;99099.20;;;7.32;86.45
77027;BME280;65956;52.986;17.490;2023-01-05T06:44:59;99107.21;;;7.24;86.88
77027;BME280;65956;52.986;17.490;2023-01-05T06:47:26;99110.84;;;7.16;87.21
77027;BME280;65956;52.986;17.490;2023-01-05T06:49:53;99109.63;;;7.07;87.01
77027;BME280;65956;52.986;17.490;2023-01-05T06:52:21;99110.91;;;7.02;86.68
77027;BME280;65956;52.986;17.490;2023-01-05T06:54:48;99118.37;;;6.97;86.49
77027;BME280;65956;52.986;17.490;2023-01-05T06:57:18;99118.01;;;6.92;86.24
77027;BME280;65956;52.986;17.490;2023-01-05T06:59:49;99121.98;;;6.87;86.25
77027;BME280;65956;52.986;17.490;2023-01-05T07:02:16;99122.54;;;6.82;86.40
77027;BME280;65956;52.986;17.490;2023-01-05T07:04:44;99128.61;;;6.80;86.64
77027;BME280;65956;52.986;17.490;2023-01-05T07:07:14;99133.30;;;6.77;86.74
77027;BME280;65956;52.986;17.490;2023-01-05T07:09:41;99132.34;;;6.76;86.58
77027;BME280;65956;52.986;17.490;2023-01-05T07:12:08;99136.70;;;6.76;86.31
77027;BME280;65956;52.986;17.490;2023-01-05T07:14:36;99136.56;;;6.77;86.23
77027;BME280;65956;52.986;17.490;2023-01-05T07:17:04;99148.73;;;6.77;86.23
77027;BME280;65956;52.986;17.490;2023-01-05T07:19:31;99148.40;;;6.76;86.23
77027;BME280;65956;52.986;17.490;2023-01-05T07:21:58;99149.83;;;6.76;86.14
77027;BME280;65956;52.986;17.490;2023-01-05T07:24:26;99149.52;;;6.77;85.91
77027;BME280;65956;52.986;17.490;2023-01-05T07:26:53;99153.52;;;6.80;85.59
77027;BME280;65956;52.986;17.490;2023-01-05T07:29:20;99163.31;;;6.79;85.69
77027;BME280;65956;52.986;17.490;2023-01-05T07:31:47;99165.83;;;6.78;85.64
77027;BME280;65956;52.986;17.490;2023-01-05T07:34:19;99169.48;;;6.79;85.09
77027;BME280;65956;52.986;17.490;2023-01-05T07:36:47;99179.46;;;6.80;84.16
77027;BME280;65956;52.986;17.490;2023-01-05T07:39:15;99177.02;;;6.81;83.11
77027;BME280;65956;52.986;17.490;2023-01-05T07:41:43;99180.11;;;6.81;82.63
77027;BME280;65956;52.986;17.490;2023-01-05T07:44:11;99182.99;;;6.84;81.85
77027;BME280;65956;52.986;17.490;2023-01-05T07:46:38;99182.73;;;6.83;81.54
77027;BME280;65956;52.986;17.490;2023-01-05T07:49:05;99181.14;;;6.81;81.59
77027;BME280;65956;52.986;17.490;2023-01-05T07:51:33;99184.88;;;6.81;81.82
77027;BME280;65956;52.986;17.490;2023-01-05T07:54:00;99184.06;;;6.81;82.01
77027;BME280;65956;52.986;17.490;2023-01-05T07:56:27;99183.75;;;6.80;82.47
77027;BME280;65956;52.986;17.490;2023-01-05T07:58:54;99186.95;;;6.78;82.84
77027;BME280;65956;52.986;17.490;2023-01-05T08:01:21;99190.31;;;6.81;82.96
77027;BME280;65956;52.986;17.490;2023-01-05T08:03:49;99190.69;;;6.85;82.96
77027;BME280;65956;52.986;17.490;2023-01-05T08:06:17;99198.81;;;6.84;82.68
77027;BME280;65956;52.986;17.490;2023-01-05T08:08:51;99203.35;;;6.85;81.29
77027;BME280;65956;52.986;17.490;2023-01-05T08:11:18;99193.33;;;6.87;81.29
77027;BME280;65956;52.986;17.490;2023-01-05T08:13:47;99195.87;;;6.87;81.66
77027;BME280;65956;52.986;17.490;2023-01-05T08:16:30;99196.02;;;6.87;81.42
77027;BME280;65956;52.986;17.490;2023-01-05T08:18:58;99190.91;;;6.84;80.99
77027;BME280;65956;52.986;17.490;2023-01-05T08:21:26;99195.02;;;6.84;80.50
77027;BME280;65956;52.986;17.490;2023-01-05T08:23:54;99196.29;;;6.84;80.45
77027;BME280;65956;52.986;17.490;2023-01-05T08:26:22;99197.77;;;6.82;79.86
77027;BME280;65956;52.986;17.490;2023-01-05T08:28:50;99195.23;;;6.83;79.25
77027;BME280;65956;52.986;17.490;2023-01-05T08:31:21;99197.80;;;6.84;79.47
77027;BME280;65956;52.986;17.490;2023-01-05T08:33:49;99205.23;;;6.89;79.37
77027;BME280;65956;52.986;17.490;2023-01-05T08:36:18;99203.90;;;6.91;79.29
77027;BME280;65956;52.986;17.490;2023-01-05T08:38:49;99209.77;;;6.92;79.31
77027;BME280;65956;52.986;17.490;2023-01-05T08:41:25;99204.94;;;6.91;79.53
77027;BME280;65956;52.986;17.490;2023-01-05T08:43:56;99213.44;;;6.94;78.97
77027;BME280;65956;52.986;17.490;2023-01-05T08:46:28;99213.59;;;6.99;78.84
77027;BME280;65956;52.986;17.490;2023-01-05T08:48:57;99205.91;;;6.98;79.26
77027;BME280;65956;52.986;17.490;2023-01-05T08:51:27;99212.16;;;6.99;78.99
77027;BME280;65956;52.986;17.490;2023-01-05T08:53:55;99214.64;;;7.01;79.37
77027;BME280;65956;52.986;17.490;2023-01-05T08:56:23;99212.04;;;7.02;78.96
77027;BME280;65956;52.986;17.490;2023-01-05T08:58:53;99209.64;;;7.06;78.99
77027;BME280;65956;52.986;17.490;2023-01-05T09:01:25;99207.37;;;7.02;79.23
77027;BME280;65956;52.986;17.490;2023-01-05T09:03:53;99206.95;;;6.99;79.15
77027;BME280;65956;52.986;17.490;2023-01-05T09:06:20;99206.09;;;7.00;79.14
77027;BME280;65956;52.986;17.490;2023-01-05T09:08:47;99200.22;;;6.99;79.58
77027;BME280;65956;52.986;17.490;2023-01-05T09:11:20;99205.18;;;6.98;79.42
77027;BME280;65956;52.986;17.490;2023-01-05T09:13:49;99200.34;;;6.96;79.58
77027;BME280;65956;52.986;17.490;2023-01-05T09:16:19;99200.26;;;6.96;79.15
77027;BME280;65956;52.986;17.490;2023-01-05T09:18:49;99197.73;;;7.03;79.31
77027;BME280;65956;52.986;17.490;2023-01-05T09:21:16;99204.23;;;7.10;79.13
77027;BME280;65956;52.986;17.490;2023-01-05T09:23:44;99200.95;;;7.19;79.27
77027;BME280;65956;52.986;17.490;2023-01-05T09:26:12;99204.10;;;7.24;79.16
77027;BME280;65956;52.986;17.490;2023-01-05T09:28:43;99199.85;;;7.27;78.62
77027;BME280;65956;52.986;17.490;2023-01-05T09:31:16;99204.98;;;7.31;78.64
77027;BME280;65956;52.986;17.490;2023-01-05T09:33:44;99214.82;;;7.34;78.21
77027;BME280;65956;52.986;17.490;2023-01-05T09:36:14;99211.18;;;7.41;77.10
77027;BME280;65956;52.986;17.490;2023-01-05T09:38:42;99209.56;;;7.52;76.97
77027;BME280;65956;52.986;17.490;2023-01-05T09:43:46;99215.86;;;7.68;76.41
77027;BME280;65956;52.986;17.490;2023-01-05T09:46:21;99208.47;;;7.82;75.05
77027;BME280;65956;52.986;17.490;2023-01-05T09:48:55;99215.73;;;8.03;75.23
77027;BME280;65956;52.986;17.490;2023-01-05T09:51:24;99220.33;;;8.20;74.39
77027;BME280;65956;52.986;17.490;2023-01-05T09:53:52;99210.22;;;8.26;74.60
77027;BME280;65956;52.986;17.490;2023-01-05T09:56:36;99206.99;;;8.20;74.16
77027;BME280;65956;52.986;17.490;2023-01-05T09:59:14;99207.18;;;8.13;73.79
77027;BME280;65956;52.986;17.490;2023-01-05T10:01:44;99205.17;;;8.10;73.93
77027;BME280;65956;52.986;17.490;2023-01-05T10:04:24;99195.59;;;8.02;73.65
77027;BME280;65956;52.986;17.490;2023-01-05T10:06:56;99195.91;;;7.93;73.14
77027;BME280;65956;52.986;17.490;2023-01-05T10:09:30;99210.54;;;7.90;72.69
77027;BME280;65956;52.986;17.490;2023-01-05T10:12:26;99204.20;;;7.83;73.12
77027;BME280;65956;52.986;17.490;2023-01-05T10:15:17;99200.30;;;7.80;73.85
77027;BME280;65956;52.986;17.490;2023-01-05T10:17:45;99198.88;;;7.75;73.17
77027;BME280;65956;52.986;17.490;2023-01-05T10:20:14;99200.85;;;7.73;72.73
77027;BME280;65956;52.986;17.490;2023-01-05T10:22:46;99198.95;;;7.72;72.32
77027;BME280;65956;52.986;17.490;2023-01-05T10:30:59;99196.67;;;7.67;73.22
77027;BME280;65956;52.986;17.490;2023-01-05T10:42:12;99189.55;;;7.61;72.91
77027;BME280;65956;52.986;17.490;2023-01-05T10:44:52;99188.30;;;7.62;72.66
77027;BME280;65956;52.986;17.490;2023-01-05T10:47:22;99189.63;;;7.61;72.48
77027;BME280;65956;52.986;17.490;2023-01-05T10:49:51;99195.07;;;7.58;72.39
77027;BME280;65956;52.986;17.490;2023-01-05T10:52:20;99193.41;;;7.57;72.78
77027;BME280;65956;52.986;17.490;2023-01-05T10:55:00;99194.51;;;7.57;73.23
77027;BME280;65956;52.986;17.490;2023-01-05T11:00:00;99187.38;;;7.65;72.36
77027;BME280;65956;52.986;17.490;2023-01-05T11:02:31;99191.16;;;7.72;72.14
77027;BME280;65956;52.986;17.490;2023-01-05T11:08:00;99190.67;;;7.86;71.97
77027;BME280;65956;52.986;17.490;2023-01-05T11:11:20;99185.70;;;7.87;72.06
77027;BME280;65956;52.986;17.490;2023-01-05T11:13:45;99196.77;;;7.85;72.20
77027;BME280;65956;52.986;17.490;2023-01-05T11:16:17;99204.38;;;7.85;72.04
77027;BME280;65956;52.986;17.490;2023-01-05T11:19:28;99202.23;;;7.84;72.39
77027;BME280;65956;52.986;17.490;2023-01-05T11:21:56;99187.59;;;7.78;72.31
77027;BME280;65956;52.986;17.490;2023-01-05T11:24:25;99203.64;;;7.73;72.56
77027;BME280;65956;52.986;17.490;2023-01-05T11:26:55;99192.80;;;7.68;72.83
77027;BME280;65956;52.986;17.490;2023-01-05T11:29:22;99196.59;;;7.67;72.95
77027;BME280;65956;52.986;17.490;2023-01-05T11:31:57;99216.10;;;7.62;73.50
77027;BME280;65956;52.986;17.490;2023-01-05T11:37:00;99213.89;;;7.49;74.52
77027;BME280;65956;52.986;17.490;2023-01-05T11:44:36;99221.02;;;7.35;75.16
77027;BME280;65956;52.986;17.490;2023-01-05T11:47:05;99211.34;;;7.41;75.41
77027;BME280;65956;52.986;17.490;2023-01-05T11:49:34;99237.38;;;7.40;75.54
77027;BME280;65956;52.986;17.490;2023-01-05T11:52:02;99225.55;;;7.37;76.06
77027;BME280;65956;52.986;17.490;2023-01-05T11:54:34;99225.73;;;7.32;76.45
77027;BME280;65956;52.986;17.490;2023-01-05T11:59:41;99222.72;;;7.31;77.00
77027;BME280;65956;52.986;17.490;2023-01-05T12:03:05;99219.75;;;7.29;77.56
77027;BME280;65956;52.986;17.490;2023-01-05T12:07:48;99228.80;;;7.18;78.59
77027;BME280;65956;52.986;17.490;2023-01-05T12:10:38;99217.98;;;7.14;78.83
77027;BME280;65956;52.986;17.490;2023-01-05T12:21:24;99217.06;;;7.05;79.69
77027;BME280;65956;52.986;17.490;2023-01-05T12:30:15;99227.42;;;6.98;80.42
77027;BME280;65956;52.986;17.490;2023-01-05T12:38:40;99232.42;;;6.89;81.54
77027;BME280;65956;52.986;17.490;2023-01-05T12:41:24;99221.31;;;6.85;81.94
77027;BME280;65956;52.986;17.490;2023-01-05T12:49:57;99237.35;;;6.84;82.17
77027;BME280;65956;52.986;17.490;2023-01-05T12:52:34;99238.14;;;6.85;82.27
77027;BME280;65956;52.986;17.490;2023-01-05T13:00:34;99253.09;;;6.73;83.32
77027;BME280;65956;52.986;17.490;2023-01-05T13:03:24;99257.02;;;6.67;83.90
77027;BME280;65956;52.986;17.490;2023-01-05T13:05:59;99257.98;;;6.62;84.32
77027;BME280;65956;52.986;17.490;2023-01-05T13:11:21;99274.56;;;6.46;85.58
77027;BME280;65956;52.986;17.490;2023-01-05T13:13:59;99293.29;;;6.40;86.12
77027;BME280;65956;52.986;17.490;2023-01-05T13:17:22;99305.33;;;6.33;86.61
77027;BME280;65956;52.986;17.490;2023-01-05T13:19:49;99326.58;;;6.23;87.28
77027;BME280;65956;52.986;17.490;2023-01-05T13:22:21;99333.13;;;6.01;87.06
77027;BME280;65956;52.986;17.490;2023-01-05T13:25:20;99351.29;;;5.79;86.57
77027;BME280;65956;52.986;17.490;2023-01-05T13:27:48;99369.71;;;5.58;86.35
77027;BME280;65956;52.986;17.490;2023-01-05T13:30:26;99361.11;;;5.44;86.53
77027;BME280;65956;52.986;17.490;2023-01-05T13:41:19;99409.11;;;4.69;83.69
77027;BME280;65956;52.986;17.490;2023-01-05T13:46:47;99441.20;;;4.53;82.85
77027;BME280;65956;52.986;17.490;2023-01-05T13:52:00;99456.21;;;4.47;83.16
77027;BME280;65956;52.986;17.490;2023-01-05T13:54:46;99457.13;;;4.43;83.73
77027;BME280;65956;52.986;17.490;2023-01-05T13:57:26;99473.09;;;4.41;84.51
77027;BME280;65956;52.986;17.490;2023-01-05T14:00:01;99488.90;;;4.37;84.79
77027;BME280;65956;52.986;17.490;2023-01-05T14:02:44;99503.72;;;4.35;85.67
77027;BME280;65956;52.986;17.490;2023-01-05T14:05:23;99509.89;;;4.36;85.91
77027;BME280;65956;52.986;17.490;2023-01-05T14:07:53;99522.81;;;4.33;85.79
77027;BME280;65956;52.986;17.490;2023-01-05T14:10:27;99524.15;;;4.31;85.39
77027;BME280;65956;52.986;17.490;2023-01-05T14:12:56;99524.66;;;4.29;84.85
77027;BME280;65956;52.986;17.490;2023-01-05T14:15:42;99533.71;;;4.26;84.22
77027;BME280;65956;52.986;17.490;2023-01-05T14:18:13;99538.58;;;4.23;83.55
77027;BME280;65956;52.986;17.490;2023-01-05T14:21:08;99546.23;;;4.23;83.32
77027;BME280;65956;52.986;17.490;2023-01-05T14:26:05;99562.92;;;4.18;83.36
77027;BME280;65956;52.986;17.490;2023-01-05T14:42:12;99609.02;;;4.10;83.85
77027;BME280;65956;52.986;17.490;2023-01-05T14:47:33;99616.44;;;4.06;83.53
77027;BME280;65956;52.986;17.490;2023-01-05T14:50:01;99621.46;;;4.03;83.80
77027;BME280;65956;52.986;17.490;2023-01-05T14:52:51;99623.04;;;4.00;83.80
77027;BME280;65956;52.986;17.490;2023-01-05T14:58:00;99626.23;;;3.97;83.93
77027;BME280;65956;52.986;17.490;2023-01-05T15:00:33;99636.13;;;3.96;84.09
77027;BME280;65956;52.986;17.490;2023-01-05T15:05:53;99648.73;;;3.94;84.04
77027;BME280;65956;52.986;17.490;2023-01-05T15:30:55;99714.38;;;3.88;84.97
77027;BME280;65956;52.986;17.490;2023-01-05T15:33:39;99723.01;;;3.87;85.03
77027;BME280;65956;52.986;17.490;2023-01-05T15:36:15;99727.93;;;3.84;85.17
77027;BME280;65956;52.986;17.490;2023-01-05T15:38:45;99739.64;;;3.81;85.25
77027;BME280;65956;52.986;17.490;2023-01-05T15:41:16;99746.03;;;3.81;85.62
77027;BME280;65956;52.986;17.490;2023-01-05T15:43:45;99754.74;;;3.79;85.73
77027;BME280;65956;52.986;17.490;2023-01-05T15:46:21;99762.74;;;3.76;85.56
77027;BME280;65956;52.986;17.490;2023-01-05T15:48:51;99768.04;;;3.74;85.81
77027;BME280;65956;52.986;17.490;2023-01-05T15:51:24;99764.05;;;3.72;85.98
77027;BME280;65956;52.986;17.490;2023-01-05T15:54:00;99758.10;;;3.71;86.06
77027;BME280;65956;52.986;17.490;2023-01-05T15:56:45;99783.77;;;3.69;86.20